createdAt,value
2023-03-08T00:00:23.493Z,60.21
2023-03-08T00:01:23.485Z,46.56
2023-03-08T00:02:23.477Z,55.76
2023-03-08T00:03:23.502Z,58.58
2023-03-08T00:04:23.572Z,58.10
2023-03-08T00:05:23.453Z,45.55
2023-03-08T00:06:23.451Z,51.46
2023-03-08T00:07:23.439Z,55.28
2023-03-08T00:08:23.498Z,44.33
2023-03-08T00:09:23.414Z,46.33
2023-03-08T00:10:23.404Z,52.03
2023-03-08T00:11:23.399Z,44.58
2023-03-08T00:12:23.386Z,54.26
2023-03-08T00:13:24.547Z,43.89
2023-03-08T00:14:24.509Z,42.60
2023-03-08T00:15:24.511Z,43.16
2023-03-08T00:16:24.637Z,50.60
2023-03-08T00:17:24.491Z,58.05
2023-03-08T00:18:24.505Z,57.21
2023-03-08T00:19:24.480Z,48.25
2023-03-08T00:20:24.471Z,43.65
2023-03-08T00:21:24.472Z,56.67
2023-03-08T00:22:24.454Z,62.03
2023-03-08T00:23:24.471Z,54.56
2023-03-08T00:24:24.445Z,54.43
2023-03-08T00:25:24.437Z,60.05
2023-03-08T00:26:24.425Z,49.23
2023-03-08T00:27:24.413Z,49.48
2023-03-08T00:28:24.442Z,47.54
2023-03-08T00:29:24.427Z,45.03
2023-03-08T00:30:24.392Z,53.00
2023-03-08T00:31:24.429Z,61.01
2023-03-08T00:32:24.420Z,55.01
2023-03-08T00:33:24.400Z,43.11
2023-03-08T00:34:24.357Z,42.60
2023-03-08T00:35:24.387Z,44.93
2023-03-08T00:36:24.356Z,52.28
2023-03-08T00:37:24.342Z,53.71
2023-03-08T00:38:24.354Z,48.70
2023-03-08T00:39:24.329Z,52.77
2023-03-08T00:40:24.318Z,51.93
2023-03-08T00:41:24.317Z,48.15
2023-03-08T00:42:24.302Z,52.40
2023-03-08T00:43:24.318Z,60.64
2023-03-08T00:44:24.280Z,45.55
2023-03-08T00:45:25.281Z,44.42
2023-03-08T00:46:24.343Z,64.78
2023-03-08T00:47:24.276Z,60.13
2023-03-08T00:48:24.297Z,45.47
2023-03-08T00:49:24.251Z,51.86
2023-03-08T00:50:24.242Z,43.91
2023-03-08T00:51:24.233Z,51.76
2023-03-08T00:52:24.225Z,52.17
2023-03-08T00:53:24.244Z,51.56
2023-03-08T00:54:24.211Z,49.50
2023-03-08T00:55:24.202Z,44.35
2023-03-08T00:56:24.200Z,57.66
2023-03-08T00:57:24.189Z,43.81
2023-03-08T00:58:24.218Z,43.95
2023-03-08T00:59:24.186Z,45.82
2023-03-08T01:00:24.167Z,54.98
2023-03-08T01:01:25.158Z,51.64
2023-03-08T01:02:24.155Z,44.59
2023-03-08T01:03:24.167Z,57.58
2023-03-08T01:04:24.136Z,49.34
2023-03-08T01:05:24.129Z,50.66
2023-03-08T01:06:24.119Z,59.61
2023-03-08T01:07:24.116Z,54.87
2023-03-08T01:08:24.130Z,54.99
2023-03-08T01:09:24.098Z,51.19
2023-03-08T01:10:24.096Z,52.31
2023-03-08T01:11:24.095Z,47.03
2023-03-08T01:12:24.084Z,45.17
2023-03-08T01:13:24.090Z,55.40
2023-03-08T01:14:24.061Z,57.90
2023-03-08T01:15:24.047Z,47.34
2023-03-08T01:16:24.053Z,52.97
2023-03-08T01:17:24.033Z,57.03
2023-03-08T01:18:24.059Z,47.29
2023-03-08T01:19:24.024Z,55.59
2023-03-08T01:20:24.021Z,50.30
2023-03-08T01:21:24.017Z,58.09
2023-03-08T01:22:23.996Z,48.70
2023-03-08T01:23:24.016Z,42.79
2023-03-08T01:24:23.989Z,44.44
2023-03-08T01:25:23.979Z,43.66
2023-03-08T01:26:23.975Z,46.50
2023-03-08T01:27:23.962Z,47.05
2023-03-08T01:28:23.981Z,57.81
2023-03-08T01:29:23.944Z,50.19
2023-03-08T01:30:23.951Z,43.00
2023-03-08T01:31:23.944Z,46.77
2023-03-08T01:32:23.961Z,47.29
2023-03-08T01:33:23.947Z,49.40
2023-03-08T01:34:23.913Z,44.62
2023-03-08T01:35:23.905Z,51.44
2023-03-08T01:36:23.897Z,47.03
2023-03-08T01:37:23.891Z,48.12
2023-03-08T01:38:23.908Z,44.41
2023-03-08T01:39:23.873Z,45.23
2023-03-08T01:40:23.875Z,54.28
2023-03-08T01:41:23.862Z,47.83
2023-03-08T01:42:23.850Z,49.13
2023-03-08T01:43:23.882Z,49.80
2023-03-08T01:44:23.841Z,43.23
2023-03-08T01:45:23.829Z,47.82
2023-03-08T01:46:23.833Z,49.72
2023-03-08T01:47:23.824Z,47.65
2023-03-08T01:48:23.835Z,49.91
2023-03-08T01:49:23.805Z,46.78
2023-03-08T01:50:23.793Z,49.22
2023-03-08T01:51:23.788Z,56.58
2023-03-08T01:52:23.794Z,43.08
2023-03-08T01:53:23.795Z,47.66
2023-03-08T01:54:23.762Z,49.79
2023-03-08T01:55:23.758Z,62.09
2023-03-08T01:56:23.753Z,55.36
2023-03-08T01:57:23.762Z,52.23
2023-03-08T01:58:23.756Z,47.73
2023-03-08T01:59:23.756Z,57.63
2023-03-08T02:00:23.722Z,56.04
2023-03-08T02:01:23.737Z,44.84
2023-03-08T02:02:23.714Z,47.44
2023-03-08T02:03:23.717Z,47.36
2023-03-08T02:04:23.684Z,58.07
2023-03-08T02:05:24.684Z,53.82
2023-03-08T02:06:23.675Z,53.16
2023-03-08T02:07:23.660Z,42.64
2023-03-08T02:08:23.687Z,46.21
2023-03-08T02:09:23.645Z,42.70
2023-03-08T02:10:23.639Z,47.57
2023-03-08T02:11:23.635Z,54.56
2023-03-08T02:12:23.627Z,55.45
2023-03-08T02:13:23.648Z,55.63
2023-03-08T02:14:23.611Z,46.56
2023-03-08T02:15:23.606Z,51.39
2023-03-08T02:16:23.597Z,56.35
2023-03-08T02:17:23.588Z,49.04
2023-03-08T02:18:23.614Z,54.47
2023-03-08T02:19:23.576Z,56.13
2023-03-08T02:20:23.580Z,49.28
2023-03-08T02:21:23.565Z,53.80
2023-03-08T02:22:23.555Z,47.64
2023-03-08T02:23:23.627Z,55.21
2023-03-08T02:24:23.558Z,49.68
2023-03-08T02:25:23.542Z,50.68
2023-03-08T02:26:23.530Z,50.85
2023-03-08T02:27:23.524Z,61.84
2023-03-08T02:28:23.517Z,55.12
2023-03-08T02:29:23.536Z,50.67
2023-03-08T02:30:23.503Z,48.04
2023-03-08T02:31:23.500Z,59.30
2023-03-08T02:32:23.554Z,56.96
2023-03-08T02:33:23.521Z,53.71
2023-03-08T02:34:23.468Z,51.33
2023-03-08T02:35:23.479Z,54.00
2023-03-08T02:36:23.460Z,45.37
2023-03-08T02:37:23.449Z,45.02
2023-03-08T02:38:23.444Z,58.78
2023-03-08T02:39:23.450Z,53.63
2023-03-08T02:40:23.424Z,56.19
2023-03-08T02:41:23.414Z,51.85
2023-03-08T02:42:23.407Z,49.40
2023-03-08T02:43:23.397Z,42.69
2023-03-08T02:44:23.430Z,48.79
2023-03-08T02:45:23.402Z,53.46
2023-03-08T02:46:23.386Z,50.17
2023-03-08T02:47:23.374Z,55.80
2023-03-08T02:48:23.365Z,47.34
2023-03-08T02:49:23.377Z,50.13
2023-03-08T02:50:23.344Z,50.92
2023-03-08T02:51:23.338Z,49.60
2023-03-08T02:52:23.338Z,61.80
2023-03-08T02:53:23.322Z,45.22
2023-03-08T02:54:23.342Z,52.34
2023-03-08T02:55:23.306Z,50.66
2023-03-08T02:56:23.309Z,53.63
2023-03-08T02:57:23.301Z,50.44
2023-03-08T02:58:24.281Z,42.69
2023-03-08T02:59:24.073Z,46.35
2023-03-08T03:00:24.278Z,49.26
2023-03-08T03:01:23.349Z,48.45
2023-03-08T03:02:23.253Z,53.25
2023-03-08T03:03:23.244Z,59.18
2023-03-08T03:04:23.263Z,47.44
2023-03-08T03:05:23.234Z,50.51
2023-03-08T03:06:23.315Z,58.14
2023-03-08T03:07:23.218Z,45.59
2023-03-08T03:08:23.210Z,49.71
2023-03-08T03:09:23.225Z,45.60
2023-03-08T03:10:23.194Z,58.37
2023-03-08T03:11:23.188Z,49.80
2023-03-08T03:12:23.178Z,51.46
2023-03-08T03:13:23.178Z,43.78
2023-03-08T03:14:23.194Z,53.17
2023-03-08T03:15:23.150Z,55.32
2023-03-08T03:16:23.147Z,53.45
2023-03-08T03:17:23.139Z,51.16
2023-03-08T03:18:23.130Z,59.54
2023-03-08T03:19:23.164Z,46.46
2023-03-08T03:20:23.117Z,50.01
2023-03-08T03:21:23.107Z,50.13
2023-03-08T03:22:23.108Z,47.61
2023-03-08T03:23:23.097Z,45.43
2023-03-08T03:24:23.108Z,51.30
2023-03-08T03:25:23.092Z,56.08
2023-03-08T03:26:23.071Z,54.59
2023-03-08T03:27:23.064Z,54.09
2023-03-08T03:28:23.057Z,47.44
2023-03-08T03:29:23.077Z,52.45
2023-03-08T03:30:23.037Z,54.30
2023-03-08T03:31:23.076Z,43.66
2023-03-08T03:32:23.074Z,49.95
2023-03-08T03:33:23.024Z,47.18
2023-03-08T03:34:23.035Z,48.42
2023-03-08T03:35:23.006Z,59.89
2023-03-08T03:36:23.010Z,56.59
2023-03-08T03:37:22.989Z,58.97
2023-03-08T03:38:22.987Z,54.45
2023-03-08T03:39:23.006Z,61.06
2023-03-08T03:40:22.965Z,48.90
2023-03-08T03:41:22.995Z,51.17
2023-03-08T03:42:22.956Z,51.72
2023-03-08T03:43:22.952Z,55.34
2023-03-08T03:44:23.064Z,56.54
2023-03-08T03:45:22.928Z,52.26
2023-03-08T03:46:22.936Z,53.25
2023-03-08T03:47:22.919Z,43.11
2023-03-08T03:48:22.922Z,49.12
2023-03-08T03:49:22.930Z,59.16
2023-03-08T03:50:22.901Z,54.35
2023-03-08T03:51:22.897Z,51.08
2023-03-08T03:52:22.886Z,52.15
2023-03-08T03:53:22.879Z,50.33
2023-03-08T03:54:22.901Z,57.77
2023-03-08T03:55:22.865Z,54.95
2023-03-08T03:56:22.858Z,52.45
2023-03-08T03:57:22.852Z,56.99
2023-03-08T03:58:22.846Z,58.89
2023-03-08T03:59:23.955Z,52.02
2023-03-08T04:00:22.827Z,55.80
2023-03-08T04:01:22.819Z,60.90
2023-03-08T04:02:23.832Z,53.88
2023-03-08T04:03:22.875Z,51.98
2023-03-08T04:04:22.826Z,57.09
2023-03-08T04:05:22.799Z,54.27
2023-03-08T04:06:22.792Z,56.03
2023-03-08T04:07:22.783Z,55.61
2023-03-08T04:08:22.774Z,52.00
2023-03-08T04:09:22.800Z,57.35
2023-03-08T04:10:22.756Z,54.89
2023-03-08T04:11:22.755Z,51.82
2023-03-08T04:12:22.748Z,51.01
2023-03-08T04:13:22.737Z,53.84
2023-03-08T04:14:22.761Z,59.68
2023-03-08T04:15:22.750Z,54.74
2023-03-08T04:16:22.784Z,54.97
2023-03-08T04:17:22.705Z,51.17
2023-03-08T04:18:22.708Z,56.74
2023-03-08T04:19:22.723Z,58.15
2023-03-08T04:20:22.695Z,57.33
2023-03-08T04:21:22.677Z,62.92
2023-03-08T04:22:22.671Z,59.14
2023-03-08T04:23:22.670Z,58.68
2023-03-08T04:24:22.685Z,54.81
2023-03-08T04:25:22.649Z,60.14
2023-03-08T04:26:22.642Z,60.50
2023-03-08T04:27:22.649Z,59.99
2023-03-08T04:28:22.635Z,57.48
2023-03-08T04:29:22.669Z,55.95
2023-03-08T04:30:22.615Z,58.71
2023-03-08T04:31:22.659Z,60.61
2023-03-08T04:32:22.686Z,62.50
2023-03-08T04:33:22.605Z,59.12
2023-03-08T04:34:22.621Z,58.17
2023-03-08T04:35:22.580Z,59.80
2023-03-08T04:36:22.578Z,55.62
2023-03-08T04:37:22.556Z,56.91
2023-03-08T04:38:23.562Z,64.18
2023-03-08T04:39:22.585Z,61.57
2023-03-08T04:40:22.547Z,60.30
2023-03-08T04:41:22.536Z,58.54
2023-03-08T04:42:22.526Z,62.72
2023-03-08T04:43:22.522Z,59.52
2023-03-08T04:44:22.539Z,55.59
2023-03-08T04:45:22.522Z,60.84
2023-03-08T04:46:22.596Z,55.38
2023-03-08T04:47:22.502Z,59.55
2023-03-08T04:48:23.823Z,53.98
2023-03-08T04:49:22.504Z,59.99
2023-03-08T04:50:22.471Z,62.62
2023-03-08T04:51:22.464Z,58.12
2023-03-08T04:52:22.458Z,56.47
2023-03-08T04:53:22.451Z,61.38
2023-03-08T04:54:22.474Z,60.67
2023-03-08T04:55:22.440Z,58.08
2023-03-08T04:56:22.429Z,60.06
2023-03-08T04:57:22.421Z,58.34
2023-03-08T04:58:22.414Z,54.08
2023-03-08T04:59:22.428Z,60.12
2023-03-08T05:00:22.414Z,58.13
2023-03-08T05:01:22.392Z,56.26
2023-03-08T05:02:22.409Z,54.26
2023-03-08T05:03:22.380Z,61.09
2023-03-08T05:04:22.398Z,57.24
2023-03-08T05:05:22.361Z,61.30
2023-03-08T05:06:22.391Z,57.41
2023-03-08T05:07:22.382Z,60.85
2023-03-08T05:08:22.378Z,56.35
2023-03-08T05:09:22.383Z,58.00
2023-03-08T05:10:22.323Z,58.09
2023-03-08T05:11:22.313Z,59.98
2023-03-08T05:12:22.305Z,60.13
2023-03-08T05:13:22.301Z,63.05
2023-03-08T05:14:22.342Z,56.91
2023-03-08T05:15:22.292Z,59.55
2023-03-08T05:16:22.318Z,59.35
2023-03-08T05:17:22.269Z,58.54
2023-03-08T05:18:22.264Z,59.10
2023-03-08T05:19:22.302Z,63.48
2023-03-08T05:20:22.261Z,60.40
2023-03-08T05:21:22.238Z,63.79
2023-03-08T05:22:22.234Z,60.17
2023-03-08T05:23:22.236Z,63.56
2023-03-08T05:24:22.222Z,63.17
2023-03-08T05:25:22.233Z,61.31
2023-03-08T05:26:22.225Z,56.53
2023-03-08T05:27:22.196Z,61.93
2023-03-08T05:28:22.190Z,62.85
2023-03-08T05:29:22.184Z,58.19
2023-03-08T05:30:22.210Z,58.99
2023-03-08T05:31:22.203Z,63.64
2023-03-08T05:32:22.205Z,60.32
2023-03-08T05:33:22.152Z,64.17
2023-03-08T05:34:22.150Z,64.44
2023-03-08T05:35:22.162Z,64.15
2023-03-08T05:36:22.145Z,61.62
2023-03-08T05:37:22.118Z,62.82
2023-03-08T05:38:22.142Z,63.71
2023-03-08T05:39:22.103Z,61.12
2023-03-08T05:40:22.125Z,61.60
2023-03-08T05:41:22.089Z,63.04
2023-03-08T05:42:22.089Z,63.71
2023-03-08T05:43:22.072Z,65.55
2023-03-08T05:44:22.063Z,64.32
2023-03-08T05:45:22.132Z,61.96
2023-03-08T05:46:22.209Z,62.21
2023-03-08T05:47:22.043Z,59.01
2023-03-08T05:48:22.036Z,61.89
2023-03-08T05:49:22.043Z,64.12
2023-03-08T05:50:22.049Z,62.28
2023-03-08T05:51:22.014Z,60.52
2023-03-08T05:52:22.028Z,63.46
2023-03-08T05:53:22.001Z,64.95
2023-03-08T05:54:21.987Z,62.24
2023-03-08T05:55:22.016Z,63.53
2023-03-08T05:56:21.984Z,55.66
2023-03-08T05:57:21.960Z,62.78
2023-03-08T05:58:21.957Z,61.98
2023-03-08T05:59:21.946Z,61.50
2023-03-08T06:00:21.985Z,62.91
2023-03-08T06:01:21.935Z,60.81
2023-03-08T06:02:21.938Z,60.88
2023-03-08T06:03:21.946Z,59.84
2023-03-08T06:04:21.916Z,63.23
2023-03-08T06:05:21.930Z,60.69
2023-03-08T06:06:21.900Z,59.92
2023-03-08T06:07:21.897Z,63.05
2023-03-08T06:08:21.889Z,60.33
2023-03-08T06:09:21.880Z,63.10
2023-03-08T06:10:21.890Z,63.96
2023-03-08T06:11:21.864Z,60.93
2023-03-08T06:12:21.852Z,63.01
2023-03-08T06:13:21.849Z,62.35
2023-03-08T06:14:21.843Z,63.89
2023-03-08T06:15:21.852Z,63.91
2023-03-08T06:16:21.848Z,65.01
2023-03-08T06:17:21.814Z,64.50
2023-03-08T06:18:21.802Z,64.53
2023-03-08T06:19:21.810Z,64.45
2023-03-08T06:20:21.817Z,62.76
2023-03-08T06:21:21.791Z,61.87
2023-03-08T06:22:21.779Z,62.90
2023-03-08T06:23:21.767Z,66.71
2023-03-08T06:24:21.825Z,63.02
2023-03-08T06:25:21.800Z,64.83
2023-03-08T06:26:21.770Z,64.44
2023-03-08T06:27:21.760Z,67.75
2023-03-08T06:28:21.741Z,66.33
2023-03-08T06:29:21.734Z,63.96
2023-03-08T06:30:21.744Z,66.98
2023-03-08T06:31:21.723Z,65.61
2023-03-08T06:32:21.737Z,64.18
2023-03-08T06:33:21.711Z,64.15
2023-03-08T06:34:21.724Z,64.34
2023-03-08T06:35:21.846Z,64.87
2023-03-08T06:36:21.682Z,61.76
2023-03-08T06:37:21.682Z,66.62
2023-03-08T06:38:21.662Z,68.81
2023-03-08T06:39:21.660Z,65.13
2023-03-08T06:40:21.675Z,62.68
2023-03-08T06:41:21.649Z,64.94
2023-03-08T06:42:34.534Z,63.27
2023-03-08T06:43:23.637Z,65.57
2023-03-08T06:44:21.624Z,62.98
2023-03-08T06:45:21.635Z,63.72
2023-03-08T06:46:21.692Z,65.43
2023-03-08T06:47:21.608Z,66.00
2023-03-08T06:48:21.598Z,65.31
2023-03-08T06:49:21.592Z,61.27
2023-03-08T06:50:21.607Z,64.12
2023-03-08T06:51:21.569Z,66.45
2023-03-08T06:52:21.563Z,62.13
2023-03-08T06:53:21.576Z,65.85
2023-03-08T06:54:21.550Z,63.81
2023-03-08T06:55:21.564Z,64.42
2023-03-08T06:56:21.532Z,64.03
2023-03-08T06:57:21.520Z,68.00
2023-03-08T06:58:21.517Z,62.97
2023-03-08T06:59:21.508Z,65.71
2023-03-08T07:00:21.525Z,60.82
2023-03-08T07:01:21.513Z,67.14
2023-03-08T07:02:21.495Z,65.67
2023-03-08T07:03:21.476Z,62.51
2023-03-08T07:04:21.492Z,65.09
2023-03-08T07:05:21.484Z,65.35
2023-03-08T07:06:21.452Z,67.25
2023-03-08T07:07:21.539Z,63.44
2023-03-08T07:08:21.439Z,67.20
2023-03-08T07:09:21.433Z,66.33
2023-03-08T07:10:21.451Z,66.35
2023-03-08T07:11:21.445Z,64.49
2023-03-08T07:12:21.401Z,65.87
2023-03-08T07:13:21.392Z,61.98
2023-03-08T07:14:21.384Z,66.16
2023-03-08T07:15:21.413Z,67.87
2023-03-08T07:16:21.388Z,63.56
2023-03-08T07:17:21.363Z,63.98
2023-03-08T07:18:21.362Z,63.10
2023-03-08T07:19:21.351Z,64.47
2023-03-08T07:20:21.370Z,67.94
2023-03-08T07:21:21.335Z,66.85
2023-03-08T07:22:21.326Z,66.01
2023-03-08T07:23:21.333Z,64.29
2023-03-08T07:24:21.315Z,59.22
2023-03-08T07:25:21.330Z,62.88
2023-03-08T07:26:21.300Z,69.59
2023-03-08T07:27:21.286Z,64.01
2023-03-08T07:28:21.280Z,61.27
2023-03-08T07:29:21.280Z,64.47
2023-03-08T07:30:21.281Z,64.90
2023-03-08T07:31:21.254Z,61.96
2023-03-08T07:32:21.337Z,63.82
2023-03-08T07:33:21.249Z,66.55
2023-03-08T07:34:21.236Z,66.00
2023-03-08T07:35:21.256Z,63.05
2023-03-08T07:36:21.319Z,62.23
2023-03-08T07:37:21.211Z,64.71
2023-03-08T07:38:21.209Z,69.35
2023-03-08T07:39:21.193Z,65.66
2023-03-08T07:40:21.221Z,62.94
2023-03-08T07:41:21.185Z,65.10
2023-03-08T07:42:21.175Z,63.70
2023-03-08T07:43:21.175Z,65.48
2023-03-08T07:44:21.275Z,63.98
2023-03-08T07:45:21.184Z,63.41
2023-03-08T07:46:21.214Z,64.98
2023-03-08T07:47:22.144Z,68.31
2023-03-08T07:48:22.149Z,63.54
2023-03-08T07:49:21.128Z,59.04
2023-03-08T07:50:21.143Z,61.17
2023-03-08T07:51:21.123Z,64.29
2023-03-08T07:52:21.101Z,61.60
2023-03-08T07:53:21.098Z,61.35
2023-03-08T07:54:22.606Z,66.41
2023-03-08T07:55:22.132Z,63.29
2023-03-08T07:56:21.067Z,64.91
2023-03-08T07:57:21.068Z,62.99
2023-03-08T07:58:21.060Z,65.14
2023-03-08T07:59:21.053Z,58.65
2023-03-08T08:00:21.073Z,62.18
2023-03-08T08:01:21.035Z,62.30
2023-03-08T08:02:21.043Z,62.81
2023-03-08T08:03:21.084Z,63.29
2023-03-08T08:04:21.057Z,61.91
2023-03-08T08:05:21.091Z,68.25
2023-03-08T08:06:21.020Z,63.49
2023-03-08T08:07:21.030Z,64.04
2023-03-08T08:08:20.981Z,61.63
2023-03-08T08:09:21.013Z,62.79
2023-03-08T08:10:21.095Z,61.80
2023-03-08T08:11:21.011Z,66.25
2023-03-08T08:12:20.951Z,65.86
2023-03-08T08:13:20.953Z,65.80
2023-03-08T08:14:20.944Z,67.54
2023-03-08T08:15:20.953Z,60.17
2023-03-08T08:16:21.048Z,63.81
2023-03-08T08:17:20.910Z,64.64
2023-03-08T08:18:20.910Z,65.64
2023-03-08T08:19:20.899Z,66.59
2023-03-08T08:20:20.896Z,60.07
2023-03-08T08:21:20.917Z,64.37
2023-03-08T08:22:20.871Z,65.93
2023-03-08T08:23:20.873Z,66.99
2023-03-08T08:24:20.862Z,61.36
2023-03-08T08:25:20.857Z,60.01
2023-03-08T08:26:20.866Z,60.00
2023-03-08T08:27:20.847Z,63.72
2023-03-08T08:28:20.839Z,63.03
2023-03-08T08:29:21.825Z,65.90
2023-03-08T08:30:20.818Z,64.46
2023-03-08T08:31:20.862Z,65.77
2023-03-08T08:32:20.847Z,66.86
2023-03-08T08:33:20.797Z,62.35
2023-03-08T08:34:20.790Z,64.56
2023-03-08T08:35:20.773Z,64.87
2023-03-08T08:36:20.842Z,63.46
2023-03-08T08:37:20.761Z,64.89
2023-03-08T08:38:20.756Z,65.84
2023-03-08T08:39:20.744Z,64.23
2023-03-08T08:40:20.732Z,65.45
2023-03-08T08:41:20.760Z,61.46
2023-03-08T08:42:20.732Z,65.12
2023-03-08T08:43:20.728Z,63.65
2023-03-08T08:44:20.713Z,63.70
2023-03-08T08:45:20.704Z,63.52
2023-03-08T08:46:20.720Z,63.72
2023-03-08T08:47:20.696Z,60.61
2023-03-08T08:48:20.681Z,65.10
2023-03-08T08:49:20.681Z,63.12
2023-03-08T08:50:20.681Z,60.10
2023-03-08T08:51:20.682Z,64.19
2023-03-08T08:52:20.668Z,62.68
2023-03-08T08:53:20.734Z,61.58
2023-03-08T08:54:20.657Z,61.63
2023-03-08T08:55:20.625Z,63.59
2023-03-08T08:56:26.619Z,63.32
2023-03-08T08:57:22.611Z,63.01
2023-03-08T08:58:20.606Z,64.10
2023-03-08T08:59:20.604Z,62.06
2023-03-08T09:00:20.589Z,59.86
2023-03-08T09:01:20.605Z,65.93
2023-03-08T09:02:20.605Z,66.27
2023-03-08T09:03:20.578Z,60.47
2023-03-08T09:04:20.704Z,60.00
2023-03-08T09:05:20.574Z,63.81
2023-03-08T09:06:20.572Z,64.74
2023-03-08T09:07:20.534Z,61.00
2023-03-08T09:08:20.526Z,62.89
2023-03-08T09:09:20.522Z,63.95
2023-03-08T09:10:20.512Z,61.07
2023-03-08T09:11:20.537Z,58.29
2023-03-08T09:12:20.502Z,64.77
2023-03-08T09:13:20.516Z,64.76
2023-03-08T09:14:20.492Z,63.60
2023-03-08T09:15:20.463Z,64.27
2023-03-08T09:16:20.520Z,59.50
2023-03-08T09:17:20.463Z,61.98
2023-03-08T09:18:20.451Z,58.54
2023-03-08T09:19:20.515Z,66.99
2023-03-08T09:20:22.252Z,62.44
2023-03-08T09:21:21.453Z,65.19
2023-03-08T09:22:20.461Z,54.92
2023-03-08T09:23:20.415Z,60.69
2023-03-08T09:24:20.406Z,62.10
2023-03-08T09:25:20.405Z,66.06
2023-03-08T09:26:20.419Z,60.56
2023-03-08T09:27:20.389Z,62.54
2023-03-08T09:28:20.374Z,63.59
2023-03-08T09:29:20.371Z,62.34
2023-03-08T09:30:20.365Z,66.04
2023-03-08T09:31:20.390Z,64.44
2023-03-08T09:32:20.403Z,66.01
2023-03-08T09:33:20.337Z,66.79
2023-03-08T09:34:20.337Z,64.46
2023-03-08T09:35:20.331Z,61.25
2023-03-08T09:36:20.370Z,66.21
2023-03-08T09:37:20.307Z,61.29
2023-03-08T09:38:20.297Z,63.04
2023-03-08T09:39:20.296Z,64.32
2023-03-08T09:40:20.288Z,57.92
2023-03-08T09:41:20.304Z,62.71
2023-03-08T09:42:20.280Z,61.62
2023-03-08T09:43:20.261Z,64.27
2023-03-08T09:44:20.257Z,63.95
2023-03-08T09:45:20.251Z,63.63
2023-03-08T09:46:20.460Z,62.01
2023-03-08T09:47:20.243Z,62.45
2023-03-08T09:48:20.289Z,57.26
2023-03-08T09:49:20.211Z,64.88
2023-03-08T09:50:21.224Z,60.80
2023-03-08T09:51:20.234Z,64.42
2023-03-08T09:52:20.326Z,60.55
2023-03-08T09:53:20.187Z,63.64
2023-03-08T09:54:20.179Z,58.66
2023-03-08T09:55:20.228Z,62.52
2023-03-08T09:56:20.161Z,59.51
2023-03-08T09:57:20.219Z,64.71
2023-03-08T09:58:20.142Z,62.61
2023-03-08T09:59:20.141Z,58.11
2023-03-08T10:00:20.134Z,56.94
2023-03-08T10:01:20.118Z,58.97
2023-03-08T10:02:20.142Z,59.64
2023-03-08T10:03:20.103Z,62.54
2023-03-08T10:04:20.141Z,61.70
2023-03-08T10:05:20.091Z,61.14
2023-03-08T10:06:20.094Z,60.83
2023-03-08T10:07:20.106Z,61.24
2023-03-08T10:08:20.066Z,60.90
2023-03-08T10:09:20.062Z,63.33
2023-03-08T10:10:22.956Z,62.95
2023-03-08T10:11:20.039Z,61.31
2023-03-08T10:12:20.061Z,62.17
2023-03-08T10:13:20.023Z,60.12
2023-03-08T10:14:20.022Z,65.21
2023-03-08T10:15:20.004Z,60.20
2023-03-08T10:16:20.663Z,61.82
2023-03-08T10:17:20.015Z,56.42
2023-03-08T10:18:19.980Z,59.44
2023-03-08T10:19:19.989Z,65.36
2023-03-08T10:20:20.056Z,63.52
2023-03-08T10:21:19.973Z,62.50
2023-03-08T10:22:19.973Z,61.27
2023-03-08T10:23:19.943Z,65.45
2023-03-08T10:24:20.085Z,60.71
2023-03-08T10:25:19.930Z,62.66
2023-03-08T10:26:19.933Z,60.74
2023-03-08T10:27:19.949Z,61.40
2023-03-08T10:28:19.931Z,60.93
2023-03-08T10:29:19.903Z,62.00
2023-03-08T10:30:19.994Z,64.52
2023-03-08T10:31:19.885Z,63.31
2023-03-08T10:32:19.923Z,62.53
2023-03-08T10:33:19.877Z,56.62
2023-03-08T10:34:19.863Z,58.02
2023-03-08T10:35:19.861Z,64.77
2023-03-08T10:36:19.858Z,60.17
2023-03-08T10:37:19.899Z,57.28
2023-03-08T10:38:19.831Z,58.28
2023-03-08T10:39:19.823Z,62.23
2023-03-08T10:40:19.859Z,63.11
2023-03-08T10:41:19.811Z,64.49
2023-03-08T10:42:19.830Z,61.99
2023-03-08T10:43:19.797Z,64.26
2023-03-08T10:44:21.765Z,60.88
2023-03-08T10:45:19.792Z,60.22
2023-03-08T10:46:19.786Z,62.95
2023-03-08T10:47:19.796Z,59.89
2023-03-08T10:48:19.750Z,57.05
2023-03-08T10:49:19.754Z,61.71
2023-03-08T10:50:19.749Z,63.06
2023-03-08T10:51:19.732Z,60.28
2023-03-08T10:52:19.750Z,62.90
2023-03-08T10:53:19.732Z,65.13
2023-03-08T10:54:19.715Z,64.12
2023-03-08T10:55:19.704Z,61.65
2023-03-08T10:56:19.763Z,66.53
2023-03-08T10:57:19.715Z,61.40
2023-03-08T10:58:19.679Z,62.04
2023-03-08T10:59:19.671Z,60.68
2023-03-08T11:00:19.665Z,62.54
2023-03-08T11:01:19.680Z,57.66
2023-03-08T11:02:19.695Z,62.96
2023-03-08T11:03:19.644Z,61.18
2023-03-08T11:04:19.678Z,63.39
2023-03-08T11:05:19.628Z,64.27
2023-03-08T11:06:19.614Z,61.19
2023-03-08T11:07:19.649Z,64.76
2023-03-08T11:08:19.598Z,58.51
2023-03-08T11:09:19.602Z,60.35
2023-03-08T11:10:19.790Z,63.48
2023-03-08T11:11:19.615Z,60.02
2023-03-08T11:12:20.632Z,59.63
2023-03-08T11:13:19.562Z,59.57
2023-03-08T11:14:19.587Z,63.56
2023-03-08T11:15:19.540Z,64.02
2023-03-08T11:16:19.565Z,60.93
2023-03-08T11:17:19.557Z,63.91
2023-03-08T11:18:19.580Z,64.26
2023-03-08T11:19:19.585Z,62.59
2023-03-08T11:20:19.513Z,54.60
2023-03-08T11:21:19.491Z,58.30
2023-03-08T11:22:19.515Z,64.39
2023-03-08T11:23:19.484Z,63.00
2023-03-08T11:24:19.482Z,60.83
2023-03-08T11:25:19.460Z,58.22
2023-03-08T11:26:19.453Z,64.68
2023-03-08T11:27:19.549Z,63.05
2023-03-08T11:28:19.441Z,63.32
2023-03-08T11:29:19.426Z,61.51
2023-03-08T11:30:19.425Z,61.52
2023-03-08T11:31:19.461Z,62.69
2023-03-08T11:32:19.526Z,60.62
2023-03-08T11:33:19.600Z,59.51
2023-03-08T11:34:19.393Z,60.48
2023-03-08T11:35:19.387Z,61.37
2023-03-08T11:36:19.375Z,60.27
2023-03-08T11:37:19.396Z,62.09
2023-03-08T11:38:19.365Z,61.89
2023-03-08T11:39:19.370Z,62.85
2023-03-08T11:40:19.343Z,61.88
2023-03-08T11:41:19.337Z,56.57
2023-03-08T11:42:19.366Z,64.40
2023-03-08T11:43:19.323Z,60.14
2023-03-08T11:44:19.343Z,60.66
2023-03-08T11:45:19.308Z,60.13
2023-03-08T11:46:19.402Z,67.72
2023-03-08T11:47:19.289Z,61.53
2023-03-08T11:48:19.808Z,59.67
2023-03-08T11:49:19.275Z,61.87
2023-03-08T11:50:19.280Z,62.27
2023-03-08T11:51:19.284Z,62.30
2023-03-08T11:52:19.258Z,63.85
2023-03-08T11:53:19.294Z,61.36
2023-03-08T11:54:19.244Z,63.13
2023-03-08T11:55:19.255Z,64.96
2023-03-08T11:56:19.223Z,67.79
2023-03-08T11:57:19.215Z,54.75
2023-03-08T11:58:19.234Z,63.76
2023-03-08T11:59:19.202Z,60.60
2023-03-08T12:00:19.195Z,60.08
2023-03-08T12:01:19.185Z,63.17
2023-03-08T12:02:19.188Z,65.00
2023-03-08T12:03:19.232Z,61.62
2023-03-08T12:04:19.244Z,63.46
2023-03-08T12:05:19.202Z,64.55
2023-03-08T12:06:28.357Z,61.03
2023-03-08T12:07:21.239Z,53.04
2023-03-08T12:08:19.183Z,61.60
2023-03-08T12:09:19.123Z,62.99
2023-03-08T12:10:19.152Z,61.30
2023-03-08T12:11:19.110Z,63.48
2023-03-08T12:12:19.104Z,63.04
2023-03-08T12:13:19.125Z,61.67
2023-03-08T12:14:19.089Z,63.67
2023-03-08T12:15:19.102Z,63.33
2023-03-08T12:16:19.287Z,60.48
2023-03-08T12:17:19.113Z,67.56
2023-03-08T12:18:19.101Z,66.09
2023-03-08T12:19:19.052Z,63.31
2023-03-08T12:20:19.037Z,67.97
2023-03-08T12:21:19.046Z,62.17
2023-03-08T12:22:19.033Z,63.84
2023-03-08T12:23:19.049Z,62.71
2023-03-08T12:24:19.020Z,63.89
2023-03-08T12:25:19.013Z,65.71
2023-03-08T12:26:19.002Z,67.47
2023-03-08T12:27:18.986Z,62.64
2023-03-08T12:28:19.066Z,63.28
2023-03-08T12:29:19.005Z,63.98
2023-03-08T12:30:18.957Z,62.68
2023-03-08T12:31:27.572Z,63.18
2023-03-08T12:32:21.156Z,64.50
2023-03-08T12:33:19.230Z,65.48
2023-03-08T12:34:18.936Z,63.40
2023-03-08T12:35:18.930Z,63.07
2023-03-08T12:36:19.054Z,60.64
2023-03-08T12:37:18.960Z,61.44
2023-03-08T12:38:18.960Z,65.07
2023-03-08T12:39:18.961Z,65.00
2023-03-08T12:40:18.934Z,67.21
2023-03-08T12:41:18.899Z,65.36
2023-03-08T12:42:18.889Z,64.01
2023-03-08T12:43:18.870Z,64.74
2023-03-08T12:44:18.900Z,62.98
2023-03-08T12:45:18.852Z,63.18
2023-03-08T12:46:18.867Z,65.37
2023-03-08T12:47:18.840Z,61.05
2023-03-08T12:48:18.949Z,58.88
2023-03-08T12:49:18.871Z,65.17
2023-03-08T12:50:18.858Z,61.26
2023-03-08T12:51:18.840Z,64.87
2023-03-08T12:52:18.881Z,63.03